createdAt,value
2023-03-06T00:00:52.311Z,19.60
2023-03-06T00:03:19.439Z,20.13
2023-03-06T00:05:46.453Z,20.47
2023-03-06T00:08:14.542Z,19.90
2023-03-06T00:10:41.340Z,22.10
2023-03-06T00:13:13.698Z,21.30
2023-03-06T00:15:40.906Z,20.27
2023-03-06T00:18:08.048Z,21.07
2023-03-06T00:20:35.568Z,20.80
2023-03-06T00:23:02.854Z,20.17
2023-03-06T00:25:29.588Z,20.53
2023-03-06T00:27:56.480Z,22.17
2023-03-06T00:30:25.217Z,20.90
2023-03-06T00:32:53.261Z,19.00
2023-03-06T00:35:20.443Z,20.60
2023-03-06T00:37:47.544Z,17.30
2023-03-06T00:40:17.226Z,19.07
2023-03-06T00:42:44.325Z,18.80
2023-03-06T00:45:12.215Z,19.67
2023-03-06T00:47:39.066Z,20.97
2023-03-06T00:50:06.478Z,20.47
2023-03-06T00:52:33.466Z,19.90
2023-03-06T00:55:00.490Z,19.47
2023-03-06T00:57:27.199Z,20.17
2023-03-06T00:59:53.931Z,19.10
2023-03-06T01:02:20.924Z,19.07
2023-03-06T01:04:47.693Z,19.10
2023-03-06T01:07:14.455Z,19.27
2023-03-06T01:09:41.446Z,19.30
2023-03-06T01:12:08.913Z,17.33
2023-03-06T01:14:35.747Z,19.27
2023-03-06T01:17:02.830Z,18.17
2023-03-06T01:19:29.553Z,20.03
2023-03-06T01:21:56.319Z,18.87
2023-03-06T01:24:25.676Z,16.70
2023-03-06T01:26:52.570Z,17.33
2023-03-06T01:29:19.306Z,16.50
2023-03-06T01:31:46.159Z,15.20
2023-03-06T01:34:12.914Z,16.83
2023-03-06T01:36:39.724Z,16.27
2023-03-06T01:39:06.462Z,16.63
2023-03-06T01:41:33.334Z,17.00
2023-03-06T01:44:00.162Z,16.97
2023-03-06T01:46:30.424Z,17.10
2023-03-06T01:49:21.643Z,17.77
2023-03-06T01:52:15.318Z,17.60
2023-03-06T01:54:49.323Z,18.23
2023-03-06T01:57:22.126Z,16.40
2023-03-06T01:59:53.148Z,16.97
2023-03-06T02:02:20.781Z,18.63
2023-03-06T02:04:48.141Z,17.57
2023-03-06T02:07:18.451Z,16.93
2023-03-06T02:09:45.210Z,17.97
2023-03-06T02:12:16.366Z,17.40
2023-03-06T02:14:43.976Z,16.93
2023-03-06T02:17:13.574Z,18.57
2023-03-06T02:20:03.768Z,19.20
2023-03-06T02:22:40.288Z,18.60
2023-03-06T02:25:29.620Z,18.13
2023-03-06T02:27:56.400Z,18.83
2023-03-06T02:30:27.191Z,18.40
2023-03-06T02:32:54.125Z,19.90
2023-03-06T02:35:26.997Z,17.83
2023-03-06T02:37:57.138Z,17.87
2023-03-06T02:40:24.481Z,16.70
2023-03-06T02:42:57.319Z,18.67
2023-03-06T02:45:33.731Z,17.17
2023-03-06T02:48:00.534Z,18.67
2023-03-06T02:50:27.308Z,17.77
2023-03-06T02:52:54.030Z,18.73
2023-03-06T02:55:20.780Z,17.20
2023-03-06T02:57:47.558Z,16.97
2023-03-06T03:00:15.380Z,18.57
2023-03-06T03:02:42.404Z,17.77
2023-03-06T03:05:09.405Z,16.90
2023-03-06T03:07:36.269Z,17.03
2023-03-06T03:10:03.614Z,16.30
2023-03-06T03:12:30.413Z,17.20
2023-03-06T03:14:57.153Z,15.80
2023-03-06T03:17:24.015Z,17.80
2023-03-06T03:19:51.494Z,18.00
2023-03-06T03:22:18.553Z,16.73
2023-03-06T03:24:46.125Z,19.37
2023-03-06T03:27:13.644Z,16.67
2023-03-06T03:29:41.093Z,16.67
2023-03-06T03:32:08.468Z,16.03
2023-03-06T03:34:35.309Z,18.83
2023-03-06T03:37:02.036Z,18.23
2023-03-06T03:39:28.994Z,18.03
2023-03-06T03:41:55.778Z,17.57
2023-03-06T03:44:22.585Z,17.13
2023-03-06T03:46:49.437Z,17.40
2023-03-06T03:49:16.445Z,16.70
2023-03-06T03:51:43.567Z,17.43
2023-03-06T03:54:10.488Z,15.47
2023-03-06T03:56:37.549Z,16.00
2023-03-06T03:59:04.358Z,16.73
2023-03-06T04:01:31.085Z,17.37
2023-03-06T04:03:57.828Z,17.70
2023-03-06T04:06:24.572Z,16.83
2023-03-06T04:08:51.298Z,17.83
2023-03-06T04:11:18.035Z,16.67
2023-03-06T04:13:44.841Z,16.90
2023-03-06T04:16:11.652Z,16.83
2023-03-06T04:18:38.411Z,19.37
2023-03-06T04:21:05.350Z,16.53
2023-03-06T04:23:32.185Z,17.27
2023-03-06T04:25:58.993Z,17.27
2023-03-06T04:28:25.848Z,15.87
2023-03-06T04:30:52.601Z,16.43
2023-03-06T04:33:19.337Z,16.20
2023-03-06T04:35:46.135Z,16.60
2023-03-06T04:38:13.427Z,15.03
2023-03-06T04:40:40.251Z,16.90
2023-03-06T04:43:07.070Z,16.80
2023-03-06T04:45:33.900Z,15.73
2023-03-06T04:48:01.492Z,16.30
2023-03-06T04:50:32.554Z,16.80
2023-03-06T04:53:01.289Z,16.73
2023-03-06T04:55:28.612Z,16.80
2023-03-06T04:57:55.909Z,15.87
2023-03-06T05:00:25.574Z,16.23
2023-03-06T05:02:52.522Z,17.37
2023-03-06T05:05:19.352Z,16.70
2023-03-06T05:07:46.220Z,16.83
2023-03-06T05:10:16.763Z,15.13
2023-03-06T05:12:44.360Z,16.03
2023-03-06T05:15:12.762Z,17.63
2023-03-06T05:17:40.189Z,15.63
2023-03-06T05:20:09.685Z,16.13
2023-03-06T05:22:36.609Z,16.57
2023-03-06T05:25:04.890Z,16.67
2023-03-06T05:27:31.980Z,17.43
2023-03-06T05:29:58.854Z,16.23
2023-03-06T05:32:25.642Z,17.17
2023-03-06T05:34:52.465Z,17.20
2023-03-06T05:37:19.177Z,17.87
2023-03-06T05:39:46.039Z,17.47
2023-03-06T05:42:12.786Z,19.10
2023-03-06T05:44:39.720Z,17.90
2023-03-06T05:47:06.550Z,17.93
2023-03-06T05:49:35.459Z,18.57
2023-03-06T05:52:06.426Z,16.43
2023-03-06T05:54:35.514Z,17.83
2023-03-06T05:57:04.312Z,18.37
2023-03-06T05:59:32.939Z,17.27
2023-03-06T06:02:01.306Z,17.47
2023-03-06T06:04:28.370Z,17.87
2023-03-06T06:07:00.407Z,17.63
2023-03-06T06:09:28.280Z,19.70
2023-03-06T06:11:57.647Z,17.73
2023-03-06T06:14:24.516Z,18.33
2023-03-06T06:16:51.980Z,17.80
2023-03-06T06:19:20.144Z,20.13
2023-03-06T06:21:48.958Z,18.00
2023-03-06T06:24:17.072Z,17.43
2023-03-06T06:26:44.300Z,17.90
2023-03-06T06:29:11.601Z,18.87
2023-03-06T06:31:38.708Z,18.83
2023-03-06T06:34:06.762Z,20.20
2023-03-06T06:36:34.102Z,20.20
2023-03-06T06:39:01.127Z,16.47
2023-03-06T06:41:50.607Z,18.87
2023-03-06T06:44:16.270Z,19.00
2023-03-06T06:49:32.717Z,18.63
2023-03-06T06:52:00.081Z,18.43
2023-03-06T06:54:27.646Z,20.00
2023-03-06T06:56:54.625Z,17.50
2023-03-06T06:59:23.784Z,20.00
2023-03-06T07:01:51.887Z,17.57
2023-03-06T07:04:19.240Z,18.33
2023-03-06T07:06:46.556Z,17.33
2023-03-06T07:09:14.051Z,18.90
2023-03-06T07:11:41.658Z,16.97
2023-03-06T07:14:08.786Z,18.23
2023-03-06T07:16:35.664Z,18.07
2023-03-06T07:19:02.849Z,17.47
2023-03-06T07:21:29.820Z,17.20
2023-03-06T07:23:57.577Z,18.30
2023-03-06T07:26:27.995Z,17.40
2023-03-06T07:28:55.222Z,16.83
2023-03-06T07:31:24.659Z,15.17
2023-03-06T07:33:53.352Z,18.20
2023-03-06T07:36:21.155Z,17.30
2023-03-06T07:38:47.872Z,17.57
2023-03-06T07:41:16.496Z,15.67
2023-03-06T07:43:45.409Z,19.70
2023-03-06T07:46:13.322Z,15.80
2023-03-06T07:48:41.032Z,17.30
2023-03-06T07:51:15.933Z,16.93
2023-03-06T07:53:43.340Z,14.43
2023-03-06T07:56:11.776Z,15.30
2023-03-06T07:58:40.423Z,15.17
2023-03-06T08:01:10.817Z,14.83
2023-03-06T08:03:37.674Z,14.97
2023-03-06T08:06:10.840Z,13.77
2023-03-06T08:08:39.654Z,13.20
2023-03-06T08:11:07.624Z,14.27
2023-03-06T08:13:35.467Z,13.37
2023-03-06T08:16:02.987Z,14.93
2023-03-06T08:18:30.053Z,13.40
2023-03-06T08:21:08.103Z,13.37
2023-03-06T08:23:35.962Z,14.03
2023-03-06T08:26:05.576Z,20.47
2023-03-06T08:28:32.958Z,14.90
2023-03-06T08:31:11.836Z,12.20
2023-03-06T08:33:39.645Z,13.20
2023-03-06T08:36:06.987Z,12.67
2023-03-06T08:38:33.721Z,13.43
2023-03-06T08:41:00.501Z,14.80
2023-03-06T08:43:27.314Z,13.93
2023-03-06T08:45:56.915Z,12.07
2023-03-06T08:48:24.010Z,11.10
2023-03-06T08:50:51.400Z,11.03
2023-03-06T08:53:18.691Z,12.03
2023-03-06T08:55:45.756Z,12.47
2023-03-06T08:58:12.879Z,11.77
2023-03-06T09:00:39.916Z,12.97
2023-03-06T09:03:06.752Z,11.80
2023-03-06T09:05:33.761Z,10.93
2023-03-06T09:08:00.522Z,10.83
2023-03-06T09:10:27.692Z,11.43
2023-03-06T09:12:55.409Z,11.50
2023-03-06T09:15:23.475Z,11.93
2023-03-06T09:17:50.926Z,12.70
2023-03-06T09:20:18.294Z,14.50
2023-03-06T09:22:45.744Z,13.03
2023-03-06T09:25:14.330Z,14.10
2023-03-06T09:27:41.349Z,12.93
2023-03-06T09:30:09.155Z,14.17
2023-03-06T09:32:35.923Z,13.97
2023-03-06T09:35:02.676Z,13.17
2023-03-06T09:37:29.412Z,13.20
2023-03-06T09:39:56.749Z,14.43
2023-03-06T09:42:24.204Z,15.23
2023-03-06T09:44:55.835Z,15.63
2023-03-06T09:47:51.931Z,12.27
2023-03-06T09:50:35.530Z,12.80
2023-03-06T09:53:17.315Z,13.33
2023-03-06T09:55:50.122Z,14.90
2023-03-06T09:58:22.007Z,13.27
2023-03-06T10:01:06.748Z,11.93
2023-03-06T10:03:54.726Z,12.23
2023-03-06T10:06:27.072Z,10.10
2023-03-06T10:09:24.353Z,9.33
2023-03-06T10:12:17.411Z,10.70
2023-03-06T10:14:48.917Z,11.23
2023-03-06T10:17:23.762Z,7.63
2023-03-06T10:19:50.888Z,7.80
2023-03-06T10:22:33.053Z,8.63
2023-03-06T10:25:05.344Z,6.17
2023-03-06T10:27:48.518Z,6.70
2023-03-06T10:30:40.337Z,8.23
2023-03-06T10:33:27.145Z,8.40
2023-03-06T10:35:56.977Z,8.53
2023-03-06T10:38:28.062Z,10.07
2023-03-06T10:41:11.153Z,11.83
2023-03-06T10:44:05.260Z,12.17
2023-03-06T10:46:36.416Z,7.73
2023-03-06T10:49:06.277Z,7.63
2023-03-06T10:51:34.287Z,7.63
2023-03-06T10:54:13.240Z,9.27
2023-03-06T10:56:42.641Z,7.77
2023-03-06T10:59:25.309Z,10.30
2023-03-06T11:01:57.774Z,9.30
2023-03-06T11:04:33.371Z,8.63
2023-03-06T11:07:19.693Z,9.60
2023-03-06T11:10:02.641Z,10.97
2023-03-06T11:12:39.392Z,11.30
2023-03-06T11:15:14.801Z,10.67
2023-03-06T11:18:00.939Z,11.83
2023-03-06T11:20:50.460Z,10.80
2023-03-06T11:23:21.483Z,12.00
2023-03-06T11:26:03.688Z,13.53
2023-03-06T11:28:39.690Z,12.30
2023-03-06T11:31:32.366Z,13.07
2023-03-06T11:34:20.932Z,10.70
2023-03-06T11:37:03.003Z,13.03
2023-03-06T11:40:13.125Z,16.57
2023-03-06T11:42:55.057Z,18.73
2023-03-06T11:45:37.356Z,16.10
2023-03-06T11:48:22.044Z,15.40
2023-03-06T11:50:55.266Z,17.57
2023-03-06T11:53:28.314Z,16.40
2023-03-06T11:56:18.114Z,16.87
2023-03-06T11:59:07.708Z,14.70
2023-03-06T12:01:41.808Z,14.47
2023-03-06T12:04:23.657Z,14.33
2023-03-06T12:07:13.389Z,16.57
2023-03-06T12:10:01.344Z,17.53
2023-03-06T12:12:46.934Z,17.40
2023-03-06T12:15:21.172Z,16.77
2023-03-06T12:18:01.469Z,15.43
2023-03-06T12:20:51.751Z,21.07
2023-03-06T12:23:33.361Z,19.80
2023-03-06T12:26:23.544Z,18.13
2023-03-06T12:29:02.748Z,24.10
2023-03-06T12:32:08.531Z,23.37
2023-03-06T12:34:47.465Z,18.20
2023-03-06T12:37:17.006Z,21.40
2023-03-06T12:40:34.946Z,19.70
2023-03-06T12:43:13.089Z,18.70
2023-03-06T12:45:41.167Z,17.30
2023-03-06T12:48:18.394Z,16.10
2023-03-06T12:50:45.866Z,17.47
2023-03-06T12:53:17.309Z,18.30
2023-03-06T12:55:47.109Z,21.00
2023-03-06T12:58:29.298Z,22.07
2023-03-06T13:01:05.090Z,23.13
2023-03-06T13:04:24.024Z,18.63
2023-03-06T13:07:05.483Z,17.10
2023-03-06T13:09:53.965Z,18.03
2023-03-06T13:12:38.913Z,18.03
2023-03-06T13:15:33.614Z,19.47
2023-03-06T13:18:00.741Z,18.50
2023-03-06T13:20:35.169Z,20.87
2023-03-06T13:23:29.829Z,18.80
2023-03-06T13:26:02.069Z,20.07
2023-03-06T13:28:53.889Z,19.87
2023-03-06T13:31:33.735Z,17.63
2023-03-06T13:34:02.065Z,20.10
2023-03-06T13:36:33.524Z,20.10
2023-03-06T13:39:07.047Z,22.67
2023-03-06T13:41:37.816Z,27.17
2023-03-06T13:44:24.849Z,21.27
2023-03-06T13:47:05.951Z,21.33
2023-03-06T13:49:34.005Z,22.23
2023-03-06T13:52:39.726Z,34.10
2023-03-06T13:55:37.649Z,35.23
2023-03-06T13:58:39.071Z,24.60
2023-03-06T14:01:24.361Z,24.40
2023-03-06T14:04:15.940Z,24.10
2023-03-06T14:07:02.939Z,25.90
2023-03-06T14:09:35.836Z,28.43
2023-03-06T14:12:07.837Z,27.33
2023-03-06T14:14:40.214Z,29.73
2023-03-06T14:17:07.188Z,28.93
2023-03-06T14:19:38.563Z,30.50
2023-03-06T14:22:12.458Z,31.63
2023-03-06T14:24:44.115Z,33.80
2023-03-06T14:27:18.702Z,33.80
2023-03-06T14:29:48.631Z,30.63
2023-03-06T14:32:18.080Z,35.77
2023-03-06T14:34:46.779Z,35.37
2023-03-06T14:37:25.171Z,32.73
2023-03-06T14:39:52.477Z,30.90
2023-03-06T14:42:21.989Z,32.57
2023-03-06T14:44:59.912Z,30.80
2023-03-06T14:47:30.887Z,25.47
2023-03-06T14:50:23.854Z,26.97
2023-03-06T14:52:56.835Z,23.70
2023-03-06T14:55:29.734Z,24.20
2023-03-06T14:57:58.468Z,20.90
2023-03-06T15:00:33.038Z,23.87
2023-03-06T15:03:00.337Z,21.97
2023-03-06T15:05:29.852Z,22.70
2023-03-06T15:08:06.676Z,23.77
2023-03-06T15:10:35.437Z,23.23
2023-03-06T15:13:24.202Z,22.13
2023-03-06T15:15:59.903Z,22.50
2023-03-06T15:18:38.896Z,22.47
2023-03-06T15:21:09.976Z,22.90
2023-03-06T15:23:42.495Z,20.83
2023-03-06T15:26:36.745Z,21.50
2023-03-06T15:29:10.335Z,21.07
2023-03-06T15:31:39.774Z,24.60
2023-03-06T15:34:06.486Z,23.50
2023-03-06T15:36:54.414Z,23.23
2023-03-06T15:39:39.132Z,21.50
2023-03-06T15:42:22.397Z,24.07
2023-03-06T15:44:57.824Z,24.83
2023-03-06T15:47:24.857Z,23.03
2023-03-06T15:49:54.352Z,24.20
2023-03-06T15:52:22.410Z,24.30
2023-03-06T15:54:49.478Z,25.37
2023-03-06T15:57:26.668Z,25.33
2023-03-06T15:59:56.044Z,24.93
2023-03-06T16:02:24.404Z,26.00
2023-03-06T16:04:51.412Z,28.67
2023-03-06T16:07:18.604Z,27.20
2023-03-06T16:09:45.352Z,29.23
2023-03-06T16:12:21.020Z,28.23
2023-03-06T16:14:48.808Z,30.43
2023-03-06T16:17:16.761Z,30.70
2023-03-06T16:19:43.738Z,31.23
2023-03-06T16:22:10.558Z,29.77
2023-03-06T16:24:37.382Z,31.63
2023-03-06T16:27:04.684Z,32.53
2023-03-06T16:29:31.820Z,31.90
2023-03-06T16:32:00.747Z,35.03
2023-03-06T16:34:27.833Z,34.17
2023-03-06T16:36:54.683Z,33.27
2023-03-06T16:39:23.714Z,34.33
2023-03-06T16:41:51.344Z,33.83
2023-03-06T16:44:18.368Z,34.63
2023-03-06T16:46:47.902Z,35.60
2023-03-06T16:49:22.870Z,40.77
2023-03-06T16:51:50.548Z,42.70
2023-03-06T16:54:17.376Z,41.47
2023-03-06T16:56:44.488Z,38.23
2023-03-06T16:59:12.274Z,37.17
2023-03-06T17:01:42.631Z,43.73
2023-03-06T17:04:09.927Z,38.53
2023-03-06T17:06:36.854Z,35.77
2023-03-06T17:09:04.029Z,35.13
2023-03-06T17:11:30.738Z,36.03
2023-03-06T17:13:57.495Z,32.37
2023-03-06T17:16:24.370Z,36.40
2023-03-06T17:18:51.406Z,40.30
2023-03-06T17:21:18.215Z,42.47
2023-03-06T17:23:46.232Z,35.73
2023-03-06T17:26:20.742Z,33.43
2023-03-06T17:28:47.701Z,33.23
2023-03-06T17:31:20.324Z,33.17
2023-03-06T17:33:48.115Z,32.70
2023-03-06T17:36:15.607Z,33.47
2023-03-06T17:38:43.009Z,35.50
2023-03-06T17:41:11.275Z,35.93
2023-03-06T17:43:38.811Z,33.03
2023-03-06T17:46:11.326Z,35.57
2023-03-06T17:48:39.100Z,54.90
2023-03-06T17:51:06.682Z,39.77
2023-03-06T17:53:33.801Z,65.93
2023-03-06T17:56:03.667Z,59.70
2023-03-06T17:58:30.410Z,39.40
2023-03-06T18:00:57.206Z,40.80
2023-03-06T18:03:23.996Z,34.87
2023-03-06T18:06:09.533Z,32.93
2023-03-06T18:08:37.603Z,34.33
2023-03-06T18:11:06.884Z,33.87
2023-03-06T18:13:35.244Z,31.27
2023-03-06T18:16:02.469Z,33.57
2023-03-06T18:18:29.388Z,34.73
2023-03-06T18:20:56.576Z,46.13
2023-03-06T18:23:23.491Z,36.40
2023-03-06T18:25:50.616Z,38.53
2023-03-06T18:28:17.399Z,28.87
2023-03-06T18:30:44.181Z,29.20
2023-03-06T18:33:10.925Z,30.63
2023-03-06T18:35:37.756Z,41.07
2023-03-06T18:38:04.495Z,24.37
2023-03-06T18:40:31.225Z,15.40
2023-03-06T18:42:58.478Z,11.97
2023-03-06T18:45:25.353Z,7.80
2023-03-06T18:47:52.106Z,10.87
2023-03-06T18:50:18.909Z,8.97
2023-03-06T18:52:45.971Z,14.27
2023-03-06T18:55:12.916Z,8.80
2023-03-06T18:57:40.106Z,9.33
2023-03-06T19:00:09.508Z,9.73
2023-03-06T19:02:36.367Z,9.33
2023-03-06T19:05:03.139Z,10.43
2023-03-06T19:07:29.876Z,13.23
2023-03-06T19:09:56.577Z,15.43
2023-03-06T19:12:23.486Z,17.63
2023-03-06T19:14:50.391Z,19.00
2023-03-06T19:17:17.158Z,18.40
2023-03-06T19:19:43.941Z,20.50
2023-03-06T19:22:10.658Z,21.23
2023-03-06T19:24:37.362Z,23.20
2023-03-06T19:27:04.185Z,25.60
2023-03-06T19:29:32.525Z,29.87
2023-03-06T19:31:59.351Z,26.07
2023-03-06T19:34:26.148Z,21.00
2023-03-06T19:36:52.988Z,21.50
2023-03-06T19:39:19.959Z,22.47
2023-03-06T19:41:47.859Z,22.97
2023-03-06T19:44:16.255Z,26.17
2023-03-06T19:46:43.590Z,18.60
2023-03-06T19:49:16.850Z,17.77
2023-03-06T19:51:43.834Z,20.70
2023-03-06T19:54:12.310Z,18.37
2023-03-06T19:56:39.123Z,14.27
2023-03-06T19:59:05.842Z,15.13
2023-03-06T20:01:34.286Z,14.53
2023-03-06T20:04:01.307Z,12.97
2023-03-06T20:06:30.274Z,13.73
2023-03-06T20:08:57.211Z,15.27
2023-03-06T20:11:26.523Z,17.63
2023-03-06T20:13:53.644Z,18.60
2023-03-06T20:16:21.500Z,19.53
2023-03-06T20:18:48.237Z,19.93
2023-03-06T20:21:15.766Z,17.57
2023-03-06T20:23:43.022Z,20.53
2023-03-06T20:26:12.180Z,16.60
2023-03-06T20:28:39.993Z,21.63
2023-03-06T20:31:26.986Z,19.63
2023-03-06T20:33:55.063Z,21.23
2023-03-06T20:36:30.640Z,21.47
2023-03-06T20:39:00.985Z,20.97
2023-03-06T20:41:29.523Z,14.67
2023-03-06T20:43:59.168Z,16.27
2023-03-06T20:46:26.570Z,13.40
2023-03-06T20:48:54.358Z,13.23
2023-03-06T20:51:33.401Z,14.60
2023-03-06T20:54:01.633Z,13.13
2023-03-06T20:56:30.520Z,12.93
2023-03-06T20:58:58.129Z,14.07
2023-03-06T21:01:30.593Z,13.90
2023-03-06T21:03:58.408Z,17.97
2023-03-06T21:06:26.389Z,17.67
2023-03-06T21:08:53.111Z,17.67
2023-03-06T21:11:19.940Z,17.17
2023-03-06T21:13:46.740Z,17.43
2023-03-06T21:16:18.027Z,16.47
2023-03-06T21:18:45.416Z,19.23
2023-03-06T21:21:18.612Z,19.73
2023-03-06T21:23:46.889Z,18.13
2023-03-06T21:26:19.006Z,18.70
2023-03-06T21:28:46.068Z,18.73
2023-03-06T21:31:14.307Z,17.23
2023-03-06T21:33:41.476Z,17.50
2023-03-06T21:36:08.410Z,16.37
2023-03-06T21:38:35.505Z,18.20
2023-03-06T21:41:28.772Z,19.63
2023-03-06T21:43:57.513Z,21.20
2023-03-06T21:46:25.156Z,18.10
2023-03-06T21:48:52.111Z,16.87
2023-03-06T21:51:20.297Z,16.53
2023-03-06T21:53:48.725Z,15.17
2023-03-06T21:56:17.890Z,16.23
2023-03-06T21:58:45.197Z,14.93
2023-03-06T22:01:18.016Z,14.93
2023-03-06T22:03:45.194Z,15.77
2023-03-06T22:06:13.166Z,16.33
2023-03-06T22:08:40.615Z,14.63
2023-03-06T22:11:12.603Z,15.40
2023-03-06T22:13:40.205Z,14.87
2023-03-06T22:16:07.664Z,15.03
2023-03-06T22:18:35.074Z,15.33
2023-03-06T22:21:07.481Z,15.80
2023-03-06T22:23:34.249Z,15.83
2023-03-06T22:26:12.745Z,14.83
2023-03-06T22:28:41.114Z,16.80
2023-03-06T22:31:14.207Z,18.57
2023-03-06T22:33:41.091Z,17.73
2023-03-06T22:36:14.305Z,26.23
2023-03-06T22:38:43.893Z,16.40
2023-03-06T22:41:11.917Z,17.67
2023-03-06T22:43:39.194Z,19.63
2023-03-06T22:46:11.911Z,16.40
2023-03-06T22:48:38.644Z,18.40
2023-03-06T22:51:11.838Z,18.03
2023-03-06T22:53:39.377Z,17.47
2023-03-06T22:56:10.682Z,14.90
2023-03-06T22:58:37.707Z,18.60
2023-03-06T23:01:08.907Z,24.33
2023-03-06T23:03:37.630Z,17.00
2023-03-06T23:06:20.866Z,13.93
2023-03-06T23:08:56.911Z,25.60
2023-03-06T23:11:25.217Z,18.57
2023-03-06T23:13:52.927Z,20.87
2023-03-06T23:16:19.931Z,16.50
2023-03-06T23:18:46.989Z,20.83
2023-03-06T23:21:16.339Z,21.13
2023-03-06T23:23:44.305Z,20.90
2023-03-06T23:26:13.463Z,21.10
2023-03-06T23:28:41.430Z,21.87
2023-03-06T23:31:16.032Z,16.30
2023-03-06T23:33:43.247Z,16.73
2023-03-06T23:36:12.568Z,15.93
2023-03-06T23:38:39.952Z,24.23
2023-03-06T23:41:10.139Z,22.10
2023-03-06T23:43:37.129Z,22.93
2023-03-06T23:46:05.140Z,22.73
2023-03-06T23:48:31.963Z,24.77
2023-03-06T23:50:58.789Z,26.93
2023-03-06T23:53:25.930Z,27.57
2023-03-06T23:55:53.974Z,21.20
2023-03-06T23:58:20.780Z,20.60
